Time;durP1;ratioP1;P1;durP2;ratioP2;P2;SDS_P1;SDS_P2;PMS_P1;PMS_P2;Temp;Humidity;BMP_temperature;BMP_pressure;BME280_temperature;BME280_humidity;BME280_pressure;Samples;Min_cycle;Max_cycle;Signal;HPM_P1;HPM_P2
2022/10/07 00:00:39;;;;;;;0.60;0.60;;;;;;;12.49;52.38;100834.19;5052787;28;20487;-84
2022/10/07 00:03:04;;;;;;;;;;;;;;;12.42;52.44;100829.84;5053016;28;20052;-83
2022/10/07 00:05:30;;;;;;;0.50;0.50;;;;;;;12.38;52.03;100820.16;5052667;28;19966;-83
2022/10/07 00:07:55;;;;;;;;;;;;;;;12.57;51.86;100831.50;5053266;28;20529;-83
2022/10/07 00:10:20;;;;;;;;;;;;;;;12.45;52.15;100835.13;5053473;28;19923;-83
2022/10/07 00:12:47;;;;;;;1.53;1.43;;;;;;;12.39;52.68;100827.22;5051931;28;20383;-82
2022/10/07 00:15:12;;;;;;;1.15;1.05;;;;;;;12.23;53.05;100817.56;5052376;28;20052;-82
2022/10/07 00:17:37;;;;;;;;;;;;;;;12.34;52.79;100827.22;5051919;28;20473;-83
2022/10/07 00:20:04;;;;;;;;;;;;;;;12.34;53.06;100828.97;5052833;28;19970;-83
2022/10/07 00:22:30;;;;;;;1.38;1.30;;;;;;;12.32;52.81;100831.63;5051725;28;20021;-81
2022/10/07 00:24:55;;;;;;;;;;;;;;;12.22;53.29;100821.97;5053123;28;20075;-82
2022/10/07 00:27:20;;;;;;;1.55;1.55;;;;;;;12.07;53.45;100808.81;5052425;28;19919;-83
2022/10/07 00:29:46;;;;;;;;;;;;;;;12.05;53.64;100831.72;5052528;28;20037;-83
2022/10/07 00:32:11;;;;;;;;;;;;;;;12.11;54.09;100829.06;5052243;28;19916;-82
2022/10/07 00:34:36;;;;;;;;;;;;;;;12.07;54.17;100832.63;5052411;28;20377;-81
2022/10/07 00:37:02;;;;;;;0.67;0.67;;;;;;;11.92;54.10;100822.91;5052821;28;19913;-82
2022/10/07 00:39:27;;;;;;;;;;;;;;;11.89;54.55;100833.50;5052306;28;20053;-82
2022/10/07 00:41:53;;;;;;;0.50;0.50;;;;;;;11.97;54.59;100832.63;5052342;28;19917;-81
2022/10/07 00:44:30;;;;;;;;;;;;;;;11.75;54.30;100823.81;5052678;28;20085;-82
2022/10/07 00:47:05;;;;;;;3.50;2.05;;;;;;;11.69;54.95;100822.97;5052211;28;19916;-82
2022/10/07 00:49:45;;;;;;;2.15;1.98;;;;;;;11.51;55.09;100790.41;5052116;28;20033;-82
2022/10/07 00:52:13;;;;;;;2.58;2.38;;;;;;;11.54;55.47;100830.03;5051993;28;20029;-82
2022/10/07 00:54:39;;;;;;;0.50;0.50;;;;;;;11.59;55.85;100822.09;5052013;28;20028;-82
2022/10/07 00:57:05;;;;;;;0.82;0.82;;;;;;;11.57;55.38;100815.91;5051998;28;20453;-82
2022/10/07 00:59:32;;;;;;;0.65;0.65;;;;;;;11.59;55.79;100822.09;5050001;28;20423;-83
2022/10/07 01:01:57;;;;;;;1.88;1.75;;;;;;;11.45;55.96;100807.13;5051618;28;20033;-82
2022/10/07 01:04:23;;;;;;;;;;;;;;;11.08;57.43;100820.34;5052288;28;20036;-82
2022/10/07 01:06:48;;;;;;;;;;;;;;;10.91;57.67;100814.16;5052003;28;20463;-82
2022/10/07 01:09:14;;;;;;;1.85;1.58;;;;;;;11.09;57.50;100810.66;5052033;28;19920;-82
2022/10/07 01:11:54;;;;;;;;;;;;;;;11.05;58.55;100815.06;5051879;28;20045;-83
2022/10/07 01:14:47;;;;;;;2.05;1.60;;;;;;;11.19;58.06;100804.50;5050956;28;20398;-82
2022/10/07 01:17:34;;;;;;;1.83;1.73;;;;;;;10.93;59.31;100813.28;5052013;28;20033;-82
2022/10/07 01:20:08;;;;;;;0.45;0.45;;;;;;;10.91;59.44;100812.41;5051238;28;20032;-81
2022/10/07 01:23:06;;;;;;;1.27;1.23;;;;;;;11.06;58.58;100800.97;5051171;28;20036;-82
2022/10/07 01:26:09;;;;;;;7.20;3.70;;;;;;;11.24;58.34;100818.56;5036880;28;20499;-82
2022/10/07 01:29:02;;;;;;;0.80;0.77;;;;;;;11.36;58.70;100808.91;5051290;28;20094;-81
2022/10/07 01:31:38;;;;;;;2.45;1.50;;;;;;;11.35;58.88;100810.66;5051360;28;20029;-82
2022/10/07 01:34:06;;;;;;;1.52;1.42;;;;;;;11.21;59.41;100801.84;5051485;28;20033;-82
2022/10/07 01:36:35;;;;;;;1.05;1.05;;;;;;;10.84;59.65;100781.59;5051121;28;20056;-82
2022/10/07 01:39:08;;;;;;;0.47;0.47;;;;;;;11.12;59.73;100797.44;5051035;28;20124;-82
2022/10/07 01:41:37;;;;;;;1.42;1.42;;;;;;;11.18;59.24;100796.56;5050986;28;20021;-82
2022/10/07 01:44:03;;;;;;;1.73;1.08;;;;;;;11.23;59.03;100798.34;5050483;28;20056;-82
2022/10/07 01:46:29;;;;;;;;;;;;;;;10.92;60.14;100808.00;5051226;28;20122;-82
2022/10/07 01:48:55;;;;;;;12.40;3.05;;;;;;;10.59;60.51;100770.13;5051047;28;19916;-83
2022/10/07 01:51:27;;;;;;;9.98;1.50;;;;;;;10.69;60.41;100781.56;5051333;28;20033;-82
2022/10/07 01:54:13;;;;;;;4.32;2.53;;;;;;;10.81;60.63;100810.63;5050322;28;20426;-82
2022/10/07 01:56:53;;;;;;;0.40;0.40;;;;;;;10.97;60.55;100806.25;5050870;28;20060;-82
2022/10/07 01:59:51;;;;;;;0.70;0.70;;;;;;;11.03;60.05;100784.25;5050622;28;20033;-82
2022/10/07 02:02:17;;;;;;;1.08;1.08;;;;;;;10.93;60.18;100808.00;5050635;28;20120;-82
2022/10/07 02:04:56;;;;;;;;;;;;;;;10.93;60.30;100793.91;5051148;28;20605;-82
2022/10/07 02:07:30;;;;;;;1.13;1.13;;;;;;;10.81;60.51;100794.78;5050534;28;19917;-82
2022/10/07 02:10:40;;;;;;;3.63;2.15;;;;;;;10.41;61.89;100789.44;5050944;28;20143;-81
2022/10/07 02:13:27;;;;;;;1.15;1.15;;;;;;;10.61;60.70;100772.75;5050769;28;20037;-81
2022/10/07 02:16:07;;;;;;;1.98;1.88;;;;;;;10.89;60.18;100779.84;5051454;28;20442;-82
2022/10/07 02:18:36;;;;;;;0.60;0.60;;;;;;;10.80;60.63;100784.22;5050846;28;20044;-82
2022/10/07 02:21:06;;;;;;;1.23;1.20;;;;;;;10.96;60.23;100782.50;5050324;28;20495;-82
2022/10/07 02:23:35;;;;;;;0.40;0.40;;;;;;;10.98;60.44;100778.09;5051109;28;20032;-82
2022/10/07 02:26:04;;;;;;;0.93;0.93;;;;;;;11.23;59.81;100806.28;5049583;28;20031;-82
2022/10/07 02:28:32;;;;;;;1.48;0.80;;;;;;;11.24;59.98;100813.28;5050337;28;20033;-82
2022/10/07 02:31:01;;;;;;;3.35;3.05;;;;;;;11.21;60.06;100808.00;5050633;28;20021;-82
2022/10/07 02:33:29;;;;;;;0.68;0.68;;;;;;;11.26;60.35;100808.00;5050303;28;20025;-83
2022/10/07 02:36:10;;;;;;;1.88;1.77;;;;;;;11.05;59.43;100785.13;5053074;28;20080;-82
2022/10/07 02:38:38;;;;;;;1.10;1.10;;;;;;;11.20;59.44;100819.47;5047632;28;20029;-82
2022/10/07 02:41:30;;;;;;;0.77;0.77;;;;;;;10.96;59.71;100801.84;5054645;28;20407;-82
2022/10/07 02:44:16;;;;;;;3.90;1.67;;;;;;;11.05;59.83;100809.78;5054001;28;20028;-82
2022/10/07 02:47:09;;;;;;;1.67;1.58;;;;;;;10.80;60.10;100785.13;5043416;28;20514;-82
2022/10/07 02:49:38;;;;;;;0.95;0.95;;;;;;;10.95;60.60;100818.56;5054498;28;20048;-82
2022/10/07 02:52:10;;;;;;;0.40;0.40;;;;;;;10.89;60.42;100805.34;5054253;28;20064;-82
2022/10/07 02:54:58;;;;;;;0.63;0.63;;;;;;;10.91;60.64;100804.47;5053752;28;20138;-82
2022/10/07 02:57:27;;;;;;;0.98;0.98;;;;;;;11.29;59.82;100821.22;5054003;28;20441;-82
2022/10/07 02:59:53;;;;;;;1.88;1.77;;;;;;;11.15;60.22;100809.78;5054142;28;20486;-82
2022/10/07 03:02:44;;;;;;;0.55;0.55;;;;;;;11.00;60.90;100793.06;5053642;28;20036;-82
2022/10/07 03:05:12;;;;;;;1.48;1.38;;;;;;;10.93;60.87;100818.56;5048429;28;20049;-82
2022/10/07 03:07:37;;;;;;;0.57;0.57;;;;;;;11.09;60.25;100806.28;5053646;28;20033;-82
2022/10/07 03:10:03;;;;;;;;;;;;;;;11.15;60.69;100821.22;5054506;28;20035;-81
2022/10/07 03:12:29;;;;;;;0.40;0.40;;;;;;;11.19;60.80;100815.06;5053675;28;19936;-81
2022/10/07 03:14:54;;;;;;;;;;;;;;;10.99;60.89;100822.09;5054173;28;20053;-81
2022/10/07 03:17:19;;;;;;;;;;;;;;;10.96;60.88;100827.38;5052891;28;19916;-82
2022/10/07 03:19:45;;;;;;;0.63;0.63;;;;;;;11.10;60.40;100821.22;5066275;28;19912;-83
2022/10/07 03:22:11;;;;;;;;;;;;;;;11.18;60.38;100820.34;5074245;28;20426;-82
2022/10/07 03:24:36;;;;;;;;;;;;;;;11.03;60.74;100823.84;5064329;28;20403;-84
2022/10/07 03:27:06;;;;;;;0.47;0.47;;;;;;;11.04;60.34;100809.78;5052604;28;19920;-82
2022/10/07 03:29:33;;;;;;;0.75;0.75;;;;;;;11.01;60.53;100823.84;5053379;28;20033;-81
2022/10/07 03:32:00;;;;;;;0.65;0.65;;;;;;;10.97;60.87;100824.75;5053589;28;20422;-81
2022/10/07 03:34:26;;;;;;;0.50;0.50;;;;;;;11.03;61.24;100813.28;5046200;28;20122;-84
2022/10/07 03:36:53;;;;;;;1.02;1.02;;;;;;;11.09;60.52;100815.94;5047252;28;20024;-81
2022/10/07 03:39:18;;;;;;;0.40;0.40;;;;;;;10.78;60.56;100762.22;5038604;28;20053;-85
2022/10/07 03:41:44;;;;;;;;;;;;;;;11.01;60.48;100809.78;5045449;28;20064;-81
2022/10/07 03:44:10;;;;;;;0.77;0.77;;;;;;;10.85;60.97;100809.75;5048963;28;20078;-85
2022/10/07 03:46:35;;;;;;;;;;;;;;;10.87;61.58;100820.31;5044630;28;20504;-83
2022/10/07 03:49:01;;;;;;;0.95;0.95;;;;;;;10.84;61.52;100829.09;5050203;28;19957;-84
2022/10/07 03:51:26;;;;;;;;;;;;;;;10.86;61.11;100819.44;5050515;28;20043;-83
2022/10/07 03:53:56;;;;;;;0.60;0.60;;;;;;;10.59;62.14;100814.97;5049590;28;19948;-83
2022/10/07 03:56:22;;;;;;;0.40;0.40;;;;;;;10.54;61.32;100799.13;5050032;28;20028;-84
2022/10/07 03:58:47;;;;;;;;;;;;;;;10.53;62.38;100821.13;5050213;28;20518;-83
2022/10/07 04:01:14;;;;;;;0.50;0.50;;;;;;;10.65;61.84;100816.75;5049934;28;19917;-83
2022/10/07 04:03:40;;;;;;;0.60;0.60;;;;;;;10.57;62.17;100806.19;5052117;28;20047;-82
2022/10/07 04:06:05;;;;;;;;;;;;;;;10.55;62.10;100824.66;5072884;28;20494;-82
2022/10/07 04:08:31;;;;;;;0.80;0.80;;;;;;;10.60;62.28;100829.03;5059422;28;20305;-82
2022/10/07 04:10:57;;;;;;;0.55;0.55;;;;;;;10.51;62.40;100816.72;5052833;28;20033;-83
2022/10/07 04:13:23;;;;;;;;;;;;;;;10.59;62.74;100835.22;5052850;28;20553;-82
2022/10/07 04:15:48;;;;;;;2.45;1.95;;;;;;;10.47;62.57;100836.03;5052496;28;19920;-80
2022/10/07 04:18:14;;;;;;;;;;;;;;;10.34;62.63;100835.13;5052941;28;20036;-80
2022/10/07 04:20:40;;;;;;;0.40;0.40;;;;;;;10.20;63.31;100817.44;5052292;28;20366;-80
2022/10/07 04:23:05;;;;;;;;;;;;;;;10.10;63.50;100835.84;5052857;28;20029;-80
2022/10/07 04:25:33;;;;;;;0.82;0.82;;;;;;;10.08;63.97;100835.84;5051463;28;19916;-81
2022/10/07 04:28:01;;;;;;;2.83;2.63;;;;;;;9.97;63.69;100833.13;5052247;28;20029;-81
2022/10/07 04:30:31;;;;;;;1.40;1.30;;;;;;;10.15;63.27;100842.91;5051600;28;20040;-82
2022/10/07 04:32:56;;;;;;;0.70;0.70;;;;;;;10.04;63.80;100837.59;5051667;28;20024;-83
2022/10/07 04:35:22;;;;;;;;;;;;;;;10.00;63.08;100835.78;5052697;28;20094;-84
2022/10/07 04:37:48;;;;;;;;;;;;;;;9.93;63.79;100839.28;5052557;28;19923;-84
2022/10/07 04:40:14;;;;;;;0.85;0.85;;;;;;;9.95;64.03;100849.84;5052189;28;19916;-86
2022/10/07 04:45:24;;;;;;;1.55;1.45;;;;;;;10.24;63.33;100838.53;5052212;28;19967;-86
2022/10/07 04:47:49;;;;;;;0.75;0.75;;;;;;;10.15;63.85;100840.28;5051416;28;20071;-85
2022/10/07 04:50:15;;;;;;;;;;;;;;;9.93;64.59;100847.19;5052269;28;20048;-87
2022/10/07 04:52:41;;;;;;;;;;;;;;;10.06;64.49;100847.28;5052751;28;19913;-85
2022/10/07 04:55:07;;;;;;;2.10;1.50;;;;;;;10.19;63.65;100830.63;5051734;28;19970;-84
2022/10/07 04:57:33;;;;;;;1.75;1.65;;;;;;;10.39;62.94;100846.56;5050150;28;20036;-84
2022/10/07 04:59:59;;;;;;;;;;;;;;;10.32;63.33;100852.66;5051193;28;20033;-84
2022/10/07 05:02:24;;;;;;;0.70;0.70;;;;;;;10.30;63.29;100847.38;5050800;28;19920;-85
2022/10/07 05:04:50;;;;;;;;;;;;;;;10.31;63.50;100848.25;5051917;28;20033;-84
2022/10/07 05:07:17;;;;;;;;;;;;;;;10.16;63.23;100847.31;5050844;28;20007;-84
2022/10/07 05:09:43;;;;;;;1.48;1.40;;;;;;;9.95;64.35;100855.13;5050595;28;20394;-84
2022/10/07 05:12:08;;;;;;;;;;;;;;;10.07;64.01;100854.28;5051395;28;20074;-83
2022/10/07 05:14:33;;;;;;;0.60;0.60;;;;;;;10.22;63.65;100849.09;5048670;28;19987;-83
2022/10/07 05:16:59;;;;;;;;;;;;;;;10.45;64.10;100857.13;5050395;28;20518;-84
2022/10/07 05:19:24;;;;;;;;;;;;;;;10.67;64.27;100863.38;5050821;28;20294;-84
2022/10/07 05:21:50;;;;;;;1.25;1.15;;;;;;;10.98;63.17;100863.44;5050186;28;19921;-83
2022/10/07 05:24:16;;;;;;;;;;;;;;;11.06;63.28;100872.28;5051051;28;20116;-83
2022/10/07 05:26:41;;;;;;;0.88;0.88;;;;;;;11.08;62.84;100861.72;5050866;28;20370;-83
2022/10/07 05:29:07;;;;;;;;;;;;;;;10.99;61.21;100859.06;5050098;28;20020;-83
2022/10/07 05:31:33;;;;;;;1.10;1.10;;;;;;;10.48;62.01;100854.50;5050198;28;20002;-83
2022/10/07 05:33:58;;;;;;;;;;;;;;;10.89;61.73;100874.88;5050285;28;20171;-83
2022/10/07 05:36:23;;;;;;;;;;;;;;;11.16;61.19;100880.22;5050344;28;19916;-83
2022/10/07 05:38:51;;;;;;;0.43;0.43;;;;;;;11.37;60.34;100860.84;5049599;28;20374;-83
2022/10/07 05:41:18;;;;;;;0.75;0.75;;;;;;;11.29;60.59;100860.84;5048323;28;20114;-84
2022/10/07 05:43:45;;;;;;;1.25;1.15;;;;;;;11.28;60.00;100859.97;5039718;28;20495;-84
2022/10/07 05:46:13;;;;;;;0.60;0.60;;;;;;;11.14;59.98;100879.31;5048934;28;20406;-83
2022/10/07 05:48:39;;;;;;;2.47;2.28;;;;;;;11.41;59.20;100879.34;5051140;28;20544;-82
2022/10/07 05:51:04;;;;;;;;;;;;;;;11.79;59.40;100874.94;5050219;28;20111;-82
2022/10/07 05:53:30;;;;;;;0.60;0.60;;;;;;;12.09;57.14;100871.38;5050429;28;19935;-84
2022/10/07 05:55:56;;;;;;;1.05;1.05;;;;;;;12.20;57.23;100863.41;5050473;28;20501;-89
2022/10/07 05:58:21;;;;;;;;;;;;;;;12.56;56.04;100888.00;5065560;28;20025;-82
2022/10/07 06:00:54;;;;;;;0.60;0.60;;;;;;;12.88;55.34;100886.94;5049263;28;20000;-83
2022/10/07 06:03:21;;;;;;;0.88;0.88;;;;;;;12.85;55.69;100857.84;5036863;28;20027;-82
2022/10/07 06:05:49;;;;;;;0.55;0.55;;;;;;;13.08;54.93;100885.06;5050392;28;20112;-82
2022/10/07 06:08:15;;;;;;;0.88;0.85;;;;;;;13.14;54.49;100891.22;5048935;28;20103;-82
2022/10/07 06:13:24;;;;;;;1.17;1.15;;;;;;;13.48;54.46;100886.56;5050509;28;19919;-83
2022/10/07 06:15:49;;;;;;;;;;;;;;;13.76;53.26;100881.94;5051500;28;20486;-83
2022/10/07 06:18:16;;;;;;;2.65;2.45;;;;;;;14.01;52.89;100863.13;5050469;28;20307;-83
2022/10/07 06:20:41;;;;;;;;;;;;;;;14.05;52.65;100874.56;5050893;28;20031;-83
2022/10/07 06:23:07;;;;;;;;;;;;;;;14.31;52.51;100867.19;5051045;28;19912;-82
2022/10/07 06:25:33;;;;;;;1.67;1.57;;;;;;;14.47;51.63;100867.00;5050630;28;19978;-83
2022/10/07 06:27:59;;;;;;;0.93;0.93;;;;;;;14.42;52.38;100859.09;5050818;28;20350;-84
2022/10/07 06:30:25;;;;;;;0.90;0.88;;;;;;;14.38;52.63;100869.78;5050701;28;20083;-82
2022/10/07 06:32:50;;;;;;;;;;;;;;;14.29;52.04;100874.31;5051060;28;20483;-83
2022/10/07 06:35:16;;;;;;;3.35;2.28;;;;;;;13.92;52.81;100872.06;5050378;28;19913;-83
2022/10/07 06:37:42;;;;;;;2.70;2.50;;;;;;;13.77;54.22;100872.19;5050814;28;20056;-82
2022/10/07 06:40:08;;;;;;;;;;;;;;;13.87;53.06;100872.97;5051172;28;20067;-83
2022/10/07 06:42:33;;;;;;;0.28;0.28;;;;;;;14.13;53.22;100870.97;5050683;28;20330;-83
2022/10/07 06:44:59;;;;;;;0.43;0.40;;;;;;;14.26;53.39;100869.03;5050582;28;20028;-82
2022/10/07 06:47:24;;;;;;;;;;;;;;;14.11;52.46;100869.19;5050861;28;20028;-82
2022/10/07 06:49:49;;;;;;;;;;;;;;;14.37;51.90;100876.00;5050810;28;19966;-82
2022/10/07 06:52:15;;;;;;;1.67;1.00;;;;;;;14.42;51.95;100861.75;5050729;28;19913;-83
2022/10/07 06:54:40;;;;;;;0.30;0.30;;;;;;;14.81;51.79;100870.16;5050423;28;20120;-82
2022/10/07 06:57:06;;;;;;;0.20;0.20;;;;;;;14.78;51.47;100872.84;5050545;28;20040;-83
2022/10/07 06:59:32;;;;;;;;;;;;;;;14.74;51.13;100873.78;5050810;28;20036;-83
2022/10/07 07:01:58;;;;;;;0.38;0.38;;;;;;;15.04;50.31;100855.66;5050344;28;19913;-82
2022/10/07 07:04:24;;;;;;;;;;;;;;;14.93;50.17;100869.09;5050697;28;20028;-82
2022/10/07 07:06:49;;;;;;;4.57;1.15;;;;;;;15.25;49.89;100861.56;5050245;28;20349;-82
2022/10/07 07:09:15;;;;;;;0.40;0.40;;;;;;;15.28;50.22;100858.84;5050606;28;20179;-82
2022/10/07 07:11:42;;;;;;;1.70;1.60;;;;;;;15.04;50.29;100874.25;5050435;28;20506;-82
2022/10/07 07:14:09;;;;;;;1.65;1.55;;;;;;;15.16;50.65;100862.56;5050196;28;20045;-82
2022/10/07 07:16:34;;;;;;;0.30;0.30;;;;;;;15.58;49.79;100837.06;5050109;28;20052;-83
2022/10/07 07:19:03;;;;;;;1.33;1.27;;;;;;;15.95;47.97;100838.19;5050309;28;20426;-83
2022/10/07 07:21:29;;;;;;;0.82;0.82;;;;;;;15.99;47.27;100850.53;5052606;28;20035;-82
2022/10/07 07:23:56;;;;;;;0.85;0.85;;;;;;;16.17;47.97;100857.28;5053847;28;20036;-83
2022/10/07 07:26:23;;;;;;;0.20;0.20;;;;;;;16.51;46.41;100829.09;5053899;28;20029;-82
2022/10/07 07:29:07;;;;;;;1.42;1.35;;;;;;;17.14;47.29;100841.00;5053078;28;20116;-82
2022/10/07 07:31:36;;;;;;;0.93;0.90;;;;;;;17.58;43.23;100833.72;5053664;28;20079;-83
2022/10/07 07:34:06;;;;;;;2.83;2.63;;;;;;;17.42;43.67;100838.53;5053544;28;20036;-83
2022/10/07 07:36:35;;;;;;;0.25;0.25;;;;;;;17.33;44.19;100828.09;5053752;28;20036;-83
2022/10/07 07:39:04;;;;;;;0.52;0.52;;;;;;;18.12;44.46;100829.63;5053687;28;20513;-83
2022/10/07 07:41:32;;;;;;;0.73;0.73;;;;;;;18.71;44.55;100838.59;5053112;28;20037;-83
2022/10/07 07:44:01;;;;;;;1.25;1.05;;;;;;;19.06;43.91;100839.28;5053311;28;20025;-82
2022/10/07 07:46:31;;;;;;;0.65;0.65;;;;;;;19.17;40.43;100830.94;5053486;28;20099;-82
2022/10/07 07:48:57;;;;;;;0.47;0.47;;;;;;;18.54;42.88;100820.41;5053389;28;20029;-82
2022/10/07 07:51:23;;;;;;;0.85;0.85;;;;;;;18.36;43.34;100819.13;5053541;28;20036;-81
2022/10/07 07:53:49;;;;;;;0.85;0.73;;;;;;;18.59;42.31;100837.16;5053354;28;20063;-81
2022/10/07 07:56:15;;;;;;;2.15;1.70;;;;;;;18.65;41.65;100820.06;5053105;28;20037;-81
2022/10/07 07:58:41;;;;;;;1.25;1.20;;;;;;;19.12;44.68;100820.38;5053210;28;20419;-82
2022/10/07 08:01:10;;;;;;;1.20;1.05;;;;;;;19.68;40.02;100819.41;5052901;28;20091;-83
2022/10/07 08:03:36;;;;;;;1.65;1.55;;;;;;;19.65;39.25;100806.13;5053277;28;20475;-83
2022/10/07 08:06:07;;;;;;;0.63;0.63;;;;;;;19.60;39.31;100814.31;5053080;28;20029;-82
2022/10/07 08:08:33;;;;;;;0.95;0.90;;;;;;;19.93;40.44;100802.50;5052983;28;20563;-82
2022/10/07 08:11:13;;;;;;;0.47;0.47;;;;;;;20.01;39.22;100800.41;5052895;28;20111;-82
2022/10/07 08:13:40;;;;;;;0.40;0.40;;;;;;;20.03;38.96;100791.41;5052917;28;20068;-82
2022/10/07 08:16:07;;;;;;;1.35;1.25;;;;;;;20.36;38.81;100803.59;5052984;28;20411;-82
2022/10/07 08:18:33;;;;;;;0.30;0.30;;;;;;;20.57;36.15;100799.19;5052897;28;20090;-82
2022/10/07 08:21:01;;;;;;;0.10;0.10;;;;;;;20.52;37.98;100809.22;5052625;28;20021;-82
2022/10/07 08:23:30;;;;;;;0.20;0.20;;;;;;;20.22;37.12;100796.06;5052765;28;20029;-82
2022/10/07 08:25:57;;;;;;;0.22;0.22;;;;;;;20.20;37.69;100804.16;5052314;28;20071;-83
2022/10/07 08:28:23;;;;;;;1.25;1.17;;;;;;;20.28;37.82;100803.88;5052550;28;20025;-83
2022/10/07 08:30:52;;;;;;;0.30;0.30;;;;;;;20.67;37.85;100810.47;5052720;28;20446;-82
2022/10/07 08:33:19;;;;;;;2.45;0.75;;;;;;;20.68;38.48;100802.38;5051675;28;20060;-82
2022/10/07 08:35:49;;;;;;;0.50;0.50;;;;;;;20.97;38.11;100808.34;5052460;28;20065;-83
2022/10/07 08:38:15;;;;;;;0.10;0.10;;;;;;;21.04;36.54;100792.91;5052329;28;20040;-83
2022/10/07 08:40:52;;;;;;;0.20;0.20;;;;;;;21.05;36.32;100784.81;5052286;28;20112;-83
2022/10/07 08:43:20;;;;;;;2.70;2.22;;;;;;;20.98;36.87;100795.84;5052694;28;20025;-83
2022/10/07 08:45:47;;;;;;;0.25;0.25;;;;;;;20.95;37.81;100790.59;5052329;28;20525;-83
2022/10/07 08:48:21;;;;;;;0.13;0.13;;;;;;;21.09;35.97;100774.81;5050956;28;20483;-84
2022/10/07 08:51:18;;;;;;;0.20;0.20;;;;;;;21.07;36.54;100774.00;5051872;28;20036;-83
2022/10/07 08:53:47;;;;;;;0.20;0.20;;;;;;;21.40;36.84;100776.19;5052225;28;20059;-83
2022/10/07 08:56:18;;;;;;;1.13;0.65;;;;;;;21.17;37.50;100747.66;5051477;28;20035;-82
2022/10/07 08:58:54;;;;;;;0.28;0.28;;;;;;;21.42;35.82;100774.31;5051088;28;20037;-83
2022/10/07 09:01:25;;;;;;;0.85;0.77;;;;;;;21.44;35.00;100772.41;5051571;28;20025;-82
2022/10/07 09:04:16;;;;;;;0.32;0.30;;;;;;;21.41;35.78;100757.34;5038675;28;20032;-82
2022/10/07 09:06:51;;;;;;;0.20;0.20;;;;;;;21.32;35.00;100748.78;5045732;28;20029;-82
2022/10/07 09:09:27;;;;;;;1.45;1.35;;;;;;;21.28;35.46;100751.59;5061296;28;20422;-83
2022/10/07 09:11:55;;;;;;;10.98;1.20;;;;;;;21.41;35.01;100729.59;5045146;28;20478;-80
2022/10/07 09:14:39;;;;;;;0.88;0.28;;;;;;;21.22;34.69;100751.00;5042456;28;20037;-82
2022/10/07 09:17:14;;;;;;;0.30;0.30;;;;;;;21.59;35.22;100728.81;5045967;28;20017;-80
2022/10/07 09:19:48;;;;;;;0.10;0.10;;;;;;;21.71;36.37;100748.91;5060518;28;20447;-85
2022/10/07 09:22:21;;;;;;;0.20;0.20;;;;;;;21.77;34.58;100723.59;5048583;28;20033;-82
2022/10/07 09:24:48;;;;;;;0.30;0.30;;;;;;;21.79;33.90;100705.59;5051163;28;20025;-81
2022/10/07 09:27:16;;;;;;;1.02;0.85;;;;;;;22.07;33.07;100717.75;5050598;28;20106;-83
2022/10/07 09:29:42;;;;;;;2.22;1.85;;;;;;;21.76;33.38;100695.00;5050530;28;20029;-83
2022/10/07 09:32:13;;;;;;;0.10;0.10;;;;;;;21.56;34.68;100709.31;5046860;28;20033;-82
2022/10/07 09:34:39;;;;;;;1.25;1.13;;;;;;;21.94;33.92;100704.88;5050075;28;20059;-82
2022/10/07 09:37:11;;;;;;;0.10;0.10;;;;;;;21.79;34.69;100714.50;5063722;28;20033;-82
2022/10/07 09:39:36;;;;;;;3.60;1.55;;;;;;;21.79;33.57;100708.28;5055460;28;20453;-82
2022/10/07 09:42:07;;;;;;;1.33;1.20;;;;;;;21.68;33.64;100702.53;5067827;28;20044;-83
2022/10/07 09:44:33;;;;;;;0.10;0.10;;;;;;;22.20;34.32;100697.44;5069299;28;20025;-83
2022/10/07 09:47:17;;;;;;;1.80;1.55;;;;;;;22.44;33.43;100699.91;5070401;28;20059;-82
2022/10/07 09:49:47;;;;;;;0.17;0.17;;;;;;;22.38;33.11;100676.00;5071255;28;20039;-85
2022/10/07 09:52:20;;;;;;;6.18;0.88;;;;;;;22.53;33.06;100696.75;5070995;28;20509;-84
2022/10/07 09:54:48;;;;;;;1.23;1.13;;;;;;;22.64;32.37;100677.41;5071106;28;20083;-84
2022/10/07 09:57:39;;;;;;;0.30;0.30;;;;;;;22.69;32.37;100688.81;5071101;28;20139;-85
2022/10/07 10:00:11;;;;;;;0.25;0.25;;;;;;;22.56;33.33;100688.56;5067878;28;20051;-83
2022/10/07 10:02:38;;;;;;;0.28;0.28;;;;;;;22.59;33.38;100674.97;5070746;28;20033;-82
2022/10/07 10:05:04;;;;;;;0.40;0.40;;;;;;;22.40;32.96;100666.03;5070491;28;20092;-84
2022/10/07 10:07:33;;;;;;;0.57;0.57;;;;;;;22.21;33.96;100666.91;5070329;28;20115;-83
2022/10/07 10:10:03;;;;;;;0.00;0.00;;;;;;;22.37;34.47;100663.50;5070384;28;20107;-83
2022/10/07 10:12:33;;;;;;;0.35;0.35;;;;;;;22.63;33.41;100640.72;5070574;28;20111;-84
2022/10/07 10:15:00;;;;;;;1.50;1.40;;;;;;;22.94;32.31;100641.84;5069912;28;20048;-83
2022/10/07 10:17:39;;;;;;;0.30;0.30;;;;;;;23.13;31.89;100648.03;5070683;28;20037;-83
2022/10/07 10:20:22;;;;;;;0.55;0.55;;;;;;;22.91;31.25;100642.88;5070577;28;20108;-82
2022/10/07 10:22:48;;;;;;;0.22;0.22;;;;;;;22.74;32.54;100630.31;5071277;28;20151;-82
2022/10/07 10:28:43;;;;;;;0.13;0.13;;;;;;;22.46;30.71;100610.19;5070556;28;20062;-83
2022/10/07 10:31:38;;;;;;;0.52;0.52;;;;;;;22.44;30.86;100619.25;5070559;28;20025;-83
2022/10/07 10:34:09;;;;;;;;;;;;;;;22.68;31.33;100612.66;5071069;28;20039;-82
2022/10/07 10:36:39;;;;;;;0.95;0.95;;;;;;;22.82;31.04;100595.81;5070559;28;19916;-83
2022/10/07 10:39:19;;;;;;;0.70;0.70;;;;;;;22.94;30.30;100597.00;5070633;28;20032;-83
2022/10/07 10:42:10;;;;;;;1.27;1.17;;;;;;;23.03;32.83;100601.00;5070674;28;20033;-82
2022/10/07 10:44:47;;;;;;;0.82;0.80;;;;;;;23.15;30.94;100591.47;5070460;28;20025;-83
2022/10/07 10:47:28;;;;;;;0.10;0.10;;;;;;;22.95;31.34;100574.50;5070731;28;20028;-82
2022/10/07 10:50:05;;;;;;;0.10;0.10;;;;;;;22.93;31.19;100591.69;5070376;28;20035;-82
2022/10/07 10:52:49;;;;;;;1.52;1.42;;;;;;;22.94;32.52;100578.16;5070439;28;20085;-82
2022/10/07 10:56:02;;;;;;;0.13;0.13;;;;;;;23.02;30.98;100562.47;5070964;28;20035;-82
2022/10/07 10:58:28;;;;;;;3.30;0.85;;;;;;;23.47;30.55;100570.88;5031999;28;20030;-82
2022/10/07 11:01:26;;;;;;;0.15;0.15;;;;;;;23.73;30.01;100571.25;5032273;28;20068;-82
2022/10/07 11:04:18;;;;;;;0.60;0.60;;;;;;;23.75;28.97;100548.66;5061148;28;20506;-82
2022/10/07 11:06:51;;;;;;;0.93;0.93;;;;;;;23.71;29.73;100539.03;5074681;28;20044;-81
2022/10/07 11:09:29;;;;;;;0.40;0.40;;;;;;;23.85;28.37;100558.94;5074115;28;20036;-81
2022/10/07 11:11:57;;;;;;;0.22;0.22;;;;;;;23.70;29.81;100556.13;5074302;28;20115;-82
2022/10/07 11:14:24;;;;;;;0.40;0.40;;;;;;;23.33;29.66;100539.31;5073917;28;20479;-82
2022/10/07 11:16:56;;;;;;;0.57;0.57;;;;;;;23.31;29.64;100553.81;5073668;28;20033;-82
2022/10/07 11:19:29;;;;;;;0.32;0.32;;;;;;;23.08;29.54;100542.47;5074120;28;20086;-83
2022/10/07 11:21:59;;;;;;;0.30;0.30;;;;;;;23.05;30.22;100538.09;5073753;28;20115;-82
2022/10/07 11:24:43;;;;;;;0.57;0.57;;;;;;;23.10;29.52;100548.66;5074208;28;20032;-83
2022/10/07 11:27:34;;;;;;;0.65;0.65;;;;;;;23.32;29.83;100534.88;5073457;28;20039;-82
2022/10/07 11:30:16;;;;;;;0.40;0.40;;;;;;;23.48;28.47;100534.03;5070563;28;20040;-81
2022/10/07 11:32:58;;;;;;;0.00;0.00;;;;;;;23.48;28.79;100512.50;5073756;28;20021;-82
2022/10/07 11:35:30;;;;;;;2.80;2.50;;;;;;;23.55;29.36;100508.53;5073551;28;20028;-83
2022/10/07 11:38:11;;;;;;;0.10;0.10;;;;;;;23.40;30.50;100519.19;5073867;28;20028;-83
2022/10/07 11:40:42;;;;;;;0.60;0.60;;;;;;;23.63;29.17;100524.25;5073552;28;20047;-82
2022/10/07 11:43:17;;;;;;;0.15;0.15;;;;;;;23.41;29.37;100507.47;5073589;28;20510;-83
2022/10/07 11:45:51;;;;;;;0.63;0.63;;;;;;;23.40;28.87;100513.81;5073309;28;20025;-82
2022/10/07 11:48:48;;;;;;;1.83;1.67;;;;;;;23.68;27.96;100512.28;5073403;28;20078;-83
2022/10/07 11:51:36;;;;;;;0.25;0.25;;;;;;;23.63;28.11;100495.47;5072368;28;20123;-82
2022/10/07 11:54:05;;;;;;;4.15;0.77;;;;;;;24.02;27.12;100487.91;5073392;28;20059;-82
2022/10/07 11:56:43;;;;;;;0.30;0.30;;;;;;;23.97;27.98;100482.78;5073050;28;20032;-82
2022/10/07 11:59:32;;;;;;;2.05;1.83;;;;;;;24.12;27.57;100495.38;5073207;28;20048;-82
2022/10/07 12:01:57;;;;;;;0.85;0.63;;;;;;;23.76;27.85;100485.75;5073087;28;20064;-82
2022/10/07 12:04:28;;;;;;;0.47;0.40;;;;;;;23.68;28.17;100493.41;5073294;28;20052;-85